Time;durP1;ratioP1;P1;durP2;ratioP2;P2;SDS_P1;SDS_P2;PMS_P1;PMS_P2;Temp;Humidity;BMP_temperature;BMP_pressure;BME280_temperature;BME280_humidity;BME280_pressure;Samples;Min_cycle;Max_cycle;Signal;HPM_P1;HPM_P2
2023/01/11 00:03:08;;;;;;;2.40;1.58;;;9.20;99.90;;;;;;10483714;28;20473;-65
2023/01/11 00:08:09;;;;;;;2.72;1.80;;;9.20;99.90;;;;;;10483831;28;20031;-66
2023/01/11 00:13:10;;;;;;;1.95;1.50;;;9.20;99.90;;;;;;10483429;28;20040;-66
2023/01/11 00:18:11;;;;;;;1.65;1.50;;;9.20;99.90;;;;;;10470374;28;20021;-65
2023/01/11 00:23:12;;;;;;;1.60;1.42;;;9.20;99.90;;;;;;10476627;28;20086;-65
2023/01/11 00:28:12;;;;;;;2.38;1.80;;;9.30;99.90;;;;;;10483198;28;20569;-65
2023/01/11 00:33:13;;;;;;;1.90;1.50;;;9.20;99.90;;;;;;10479382;28;20094;-65
2023/01/11 00:38:42;;;;;;;1.95;1.50;;;9.30;99.90;;;;;;10478534;28;20097;-65
2023/01/11 00:48:53;;;;;;;;;;;9.30;99.90;;;;;;10472511;28;20066;-66
2023/01/11 00:53:53;;;;;;;1.60;1.40;;;9.50;99.90;;;;;;10474190;28;19904;-65
2023/01/11 00:58:54;;;;;;;2.03;1.70;;;9.30;99.90;;;;;;10475886;28;20020;-66
2023/01/11 01:03:54;;;;;;;2.03;1.48;;;9.30;99.90;;;;;;10472777;28;20036;-65
2023/01/11 01:08:55;;;;;;;2.05;1.70;;;9.30;99.90;;;;;;10470640;28;20469;-66
2023/01/11 01:19:15;;;;;;;;;;;9.30;99.90;;;;;;10475771;28;20025;-65
2023/01/11 01:24:16;;;;;;;1.83;1.50;;;9.40;99.90;;;;;;10474644;28;20377;-66
2023/01/11 01:29:16;;;;;;;1.60;1.40;;;9.40;99.90;;;;;;10470519;28;20086;-65
2023/01/11 01:34:17;;;;;;;1.83;1.50;;;9.40;99.90;;;;;;10480983;28;20656;-65
2023/01/11 01:39:18;;;;;;;1.83;1.55;;;9.40;99.90;;;;;;10482264;28;20029;-66
2023/01/11 01:44:56;;;;;;;2.67;1.65;;;9.40;99.90;;;;;;10481323;28;20058;-65
2023/01/11 01:50:03;;;;;;;1.60;1.27;;;9.50;99.90;;;;;;10470817;28;20062;-65
2023/01/11 01:55:09;;;;;;;1.98;1.30;;;9.40;99.90;;;;;;10479035;28;20099;-65
2023/01/11 02:00:10;;;;;;;2.42;1.50;;;9.50;99.90;;;;;;10474621;28;20028;-65
2023/01/11 02:05:14;;;;;;;1.80;1.42;;;9.50;99.90;;;;;;10488162;28;20074;-65
2023/01/11 02:10:26;;;;;;;1.40;1.30;;;9.50;99.90;;;;;;10488994;28;20048;-66
2023/01/11 02:15:28;;;;;;;1.70;1.40;;;9.50;99.90;;;;;;10492687;28;20059;-66
2023/01/11 02:20:53;;;;;;;1.70;1.60;;;9.50;99.90;;;;;;10489493;28;20028;-65
2023/01/11 02:26:21;;;;;;;1.52;1.27;;;9.50;99.90;;;;;;10484845;28;20028;-65
2023/01/11 02:31:31;;;;;;;3.80;2.35;;;9.60;99.90;;;;;;10485366;28;20383;-64
2023/01/11 02:36:50;;;;;;;2.13;1.58;;;9.60;99.90;;;;;;10474611;28;20020;-65
2023/01/11 02:48:02;;;;;;;1.80;1.33;;;9.60;99.90;;;;;;10484550;28;20071;-65
2023/01/11 02:53:29;;;;;;;2.03;1.40;;;9.60;99.90;;;;;;10486402;28;20489;-64
2023/01/11 02:58:35;;;;;;;1.50;1.20;;;9.60;99.90;;;;;;10482925;28;20032;-64
2023/01/11 03:03:35;;;;;;;1.83;1.20;;;9.60;99.90;;;;;;10485019;28;20061;-65
2023/01/11 03:08:40;;;;;;;2.45;1.08;;;9.70;99.90;;;;;;10483618;28;20127;-65
2023/01/11 03:13:56;;;;;;;0.85;0.85;;;9.70;99.90;;;;;;10483037;28;20027;-65
2023/01/11 03:19:06;;;;;;;1.30;0.95;;;9.70;99.90;;;;;;10482576;28;20012;-65
2023/01/11 03:24:25;;;;;;;1.33;0.93;;;9.70;99.90;;;;;;10478073;28;20511;-64
2023/01/11 03:29:45;;;;;;;1.00;0.80;;;9.70;99.90;;;;;;10479505;28;20024;-64
2023/01/11 03:35:07;;;;;;;1.88;0.95;;;9.70;99.90;;;;;;10478258;28;20056;-65
2023/01/11 03:40:09;;;;;;;1.15;0.80;;;9.80;99.90;;;;;;10478229;28;20397;-65
2023/01/11 03:45:10;;;;;;;1.25;0.70;;;9.80;99.90;;;;;;10479681;28;20040;-65
2023/01/11 03:50:12;;;;;;;0.88;0.73;;;9.80;99.90;;;;;;10474108;28;20040;-65
2023/01/11 03:55:16;;;;;;;0.70;0.70;;;9.80;99.90;;;;;;10477876;28;20021;-65
2023/01/11 04:00:21;;;;;;;1.20;0.88;;;9.80;99.90;;;;;;10478214;28;20108;-65
2023/01/11 04:05:22;;;;;;;1.02;0.70;;;9.80;99.90;;;;;;10476002;28;20345;-65
2023/01/11 04:10:22;;;;;;;0.60;0.60;;;9.80;99.90;;;;;;10483359;28;20029;-65
2023/01/11 04:15:23;;;;;;;0.50;0.40;;;9.90;99.90;;;;;;10476141;28;20040;-65
2023/01/11 04:20:24;;;;;;;0.93;0.70;;;9.90;99.90;;;;;;10473744;28;20009;-66
2023/01/11 04:25:24;;;;;;;0.60;0.40;;;9.90;99.90;;;;;;10475924;28;20496;-65
2023/01/11 04:30:26;;;;;;;0.60;0.57;;;9.90;99.90;;;;;;10482352;28;20680;-65
2023/01/11 04:35:26;;;;;;;0.90;0.60;;;9.90;99.90;;;;;;10481854;28;20036;-64
2023/01/11 04:40:27;;;;;;;1.00;0.68;;;9.90;99.90;;;;;;10482673;28;20032;-65
2023/01/11 04:45:29;;;;;;;0.80;0.60;;;9.90;99.90;;;;;;10481119;28;20028;-66
2023/01/11 04:50:29;;;;;;;0.55;0.40;;;9.90;99.90;;;;;;10481536;28;20047;-65
2023/01/11 04:55:30;;;;;;;0.60;0.45;;;9.90;99.90;;;;;;10481468;28;20112;-65
2023/01/11 05:00:31;;;;;;;1.75;0.63;;;10.00;99.90;;;;;;10481105;28;20028;-66
2023/01/11 05:05:32;;;;;;;0.90;0.60;;;9.90;99.90;;;;;;10480099;28;20032;-65
2023/01/11 05:10:33;;;;;;;0.70;0.40;;;10.00;99.90;;;;;;10480620;28;20025;-65
2023/01/11 05:15:34;;;;;;;0.68;0.50;;;10.00;99.90;;;;;;10480522;28;20036;-65
2023/01/11 05:20:34;;;;;;;1.33;0.57;;;10.00;99.90;;;;;;10480816;28;20553;-65
2023/01/11 05:25:35;;;;;;;0.57;0.40;;;10.00;99.90;;;;;;10473562;28;20037;-65
2023/01/11 05:30:35;;;;;;;2.80;0.65;;;10.00;99.90;;;;;;10479599;28;20104;-65
2023/01/11 05:35:36;;;;;;;0.70;0.60;;;10.00;99.90;;;;;;10479323;28;20021;-65
2023/01/11 05:40:36;;;;;;;0.60;0.50;;;10.00;99.90;;;;;;10480745;28;20031;-66
2023/01/11 05:45:37;;;;;;;0.60;0.50;;;10.10;99.90;;;;;;10479835;28;20086;-66
2023/01/11 05:50:38;;;;;;;1.25;0.50;;;10.00;99.90;;;;;;10480660;28;20373;-65
2023/01/11 05:55:38;;;;;;;0.60;0.60;;;10.00;99.90;;;;;;10476711;28;20021;-65
2023/01/11 06:00:39;;;;;;;1.23;0.73;;;10.00;99.90;;;;;;10467868;28;20041;-66
2023/01/11 06:05:39;;;;;;;0.70;0.50;;;10.00;99.90;;;;;;10469425;28;20013;-65
2023/01/11 06:10:41;;;;;;;3.03;0.40;;;10.00;99.90;;;;;;10479488;28;20039;-65
2023/01/11 06:15:42;;;;;;;0.63;0.50;;;10.00;99.90;;;;;;10476397;28;20167;-65
2023/01/11 06:20:42;;;;;;;0.60;0.50;;;9.80;99.90;;;;;;10472178;28;20061;-66
2023/01/11 06:25:44;;;;;;;1.90;0.68;;;10.10;99.90;;;;;;10475512;28;20127;-66
2023/01/11 06:30:55;;;;;;;1.65;0.52;;;10.00;99.90;;;;;;10469397;28;20508;-66
2023/01/11 06:35:57;;;;;;;1.48;0.60;;;10.10;99.90;;;;;;10472660;28;20013;-65
2023/01/11 06:41:01;;;;;;;1.73;0.50;;;10.10;99.90;;;;;;10466678;28;20052;-65
2023/01/11 06:46:01;;;;;;;1.45;0.40;;;10.10;99.90;;;;;;10473623;28;20418;-64
2023/01/11 06:51:02;;;;;;;0.80;0.47;;;10.10;99.90;;;;;;10482330;28;20032;-65
2023/01/11 06:56:03;;;;;;;1.90;0.60;;;10.10;99.90;;;;;;10482723;28;20020;-65
2023/01/11 07:01:04;;;;;;;5.57;1.42;;;10.10;99.90;;;;;;10480060;28;20048;-65
2023/01/11 07:06:06;;;;;;;2.72;0.75;;;10.10;99.90;;;;;;10476197;28;20238;-65
2023/01/11 07:11:07;;;;;;;1.52;0.73;;;10.10;99.90;;;;;;10483814;28;20016;-65
2023/01/11 07:16:11;;;;;;;1.63;0.52;;;10.10;99.90;;;;;;10483126;28;20028;-65
2023/01/11 07:21:11;;;;;;;0.80;0.60;;;10.10;99.90;;;;;;10479877;28;20039;-66
2023/01/11 07:26:13;;;;;;;3.75;0.90;;;10.10;99.90;;;;;;10476493;28;20021;-65
2023/01/11 07:31:13;;;;;;;3.35;0.90;;;10.10;99.90;;;;;;10476009;28;20086;-66
2023/01/11 07:36:14;;;;;;;1.52;0.77;;;10.10;99.90;;;;;;10481015;28;20053;-65
2023/01/11 07:46:34;;;;;;;3.72;0.70;;;10.10;99.90;;;;;;10472677;28;20116;-66
2023/01/11 07:51:34;;;;;;;2.40;0.57;;;10.10;99.90;;;;;;10478416;28;20021;-65
2023/01/11 07:56:35;;;;;;;5.60;0.93;;;10.10;99.90;;;;;;10483075;28;20032;-65
2023/01/11 08:01:36;;;;;;;3.58;0.80;;;10.10;99.90;;;;;;10476146;28;20036;-65
2023/01/11 08:06:37;;;;;;;3.35;1.08;;;10.20;99.90;;;;;;10472570;28;20021;-65
2023/01/11 08:16:57;;;;;;;2.22;0.70;;;10.20;99.90;;;;;;10473078;28;20017;-65
2023/01/11 08:21:57;;;;;;;3.10;0.98;;;10.10;99.90;;;;;;10475440;28;20031;-65
2023/01/11 08:26:58;;;;;;;3.80;0.60;;;10.20;99.90;;;;;;10477564;28;20031;-66
2023/01/11 08:31:59;;;;;;;3.28;1.13;;;10.10;99.90;;;;;;10478634;28;20431;-65
2023/01/11 08:37:00;;;;;;;1.73;0.80;;;10.10;99.90;;;;;;10468775;28;20017;-64
2023/01/11 08:42:02;;;;;;;2.05;0.70;;;10.10;99.90;;;;;;10473521;28;20047;-64
2023/01/11 08:47:02;;;;;;;1.92;0.70;;;10.10;99.90;;;;;;10474834;28;20021;-66
2023/01/11 08:52:03;;;;;;;1.35;0.80;;;10.10;99.90;;;;;;10473014;28;20066;-67
2023/01/11 08:57:04;;;;;;;2.47;0.52;;;10.10;99.90;;;;;;10476713;28;20020;-67
2023/01/11 09:02:05;;;;;;;2.30;0.95;;;10.10;99.90;;;;;;10477194;28;20032;-66
2023/01/11 09:07:06;;;;;;;2.03;0.65;;;10.10;99.90;;;;;;10473092;28;20052;-66
2023/01/11 09:12:06;;;;;;;6.90;1.60;;;10.10;99.90;;;;;;10483732;28;20044;-65
2023/01/11 09:17:07;;;;;;;3.65;0.70;;;10.10;99.90;;;;;;10482068;28;20070;-65
2023/01/11 09:22:07;;;;;;;1.45;0.80;;;10.10;99.90;;;;;;10482481;28;20523;-65
2023/01/11 09:27:10;;;;;;;2.13;1.02;;;10.10;99.90;;;;;;10471846;28;20415;-66
2023/01/11 09:32:10;;;;;;;1.55;0.90;;;11.10;99.90;;;;;;10480580;28;20075;-65
2023/01/11 09:37:11;;;;;;;4.05;0.90;;;10.10;99.90;;;;;;10482094;28;20051;-66
2023/01/11 09:42:31;;;;;;;1.27;0.70;;;10.10;99.90;;;;;;10481656;28;20078;-66
2023/01/11 09:47:42;;;;;;;2.25;0.70;;;10.10;99.90;;;;;;10479055;28;20083;-65
2023/01/11 09:52:51;;;;;;;1.38;0.68;;;10.10;99.90;;;;;;10479348;28;20021;-66
2023/01/11 09:58:31;;;;;;;1.65;0.70;;;10.10;99.90;;;;;;10472480;28;20056;-66
2023/01/11 10:03:57;;;;;;;2.63;0.80;;;10.10;99.90;;;;;;10471497;28;20036;-66
2023/01/11 10:09:17;;;;;;;2.08;0.82;;;10.20;99.90;;;;;;10473682;28;20056;-67
2023/01/11 10:14:39;;;;;;;2.65;1.00;;;10.20;99.90;;;;;;10477645;28;20020;-66
2023/01/11 10:19:46;;;;;;;4.65;1.35;;;10.20;99.90;;;;;;10484089;28;20047;-65
2023/01/11 10:24:52;;;;;;;4.82;1.83;;;10.30;99.90;;;;;;10375743;28;20520;-65
2023/01/11 10:35:46;;;;;;;3.55;1.05;;;10.40;99.90;;;;;;10421805;28;20033;-65
2023/01/11 10:41:14;;;;;;;5.90;0.97;;;10.40;99.90;;;;;;10441636;28;20191;-65
2023/01/11 10:46:21;;;;;;;1.63;0.73;;;10.50;99.90;;;;;;10440695;28;20044;-65
2023/01/11 10:51:36;;;;;;;6.93;1.10;;;10.60;99.90;;;;;;10437975;28;20550;-65
2023/01/11 10:56:42;;;;;;;3.90;0.93;;;10.60;99.90;;;;;;10433849;28;20029;-65
2023/01/11 11:01:55;;;;;;;2.35;0.80;;;10.70;99.90;;;;;;10433883;28;20025;-65
2023/01/11 11:07:25;;;;;;;3.42;0.95;;;10.70;99.90;;;;;;10427843;28;20037;-65
2023/01/11 11:12:29;;;;;;;3.90;0.90;;;10.70;99.90;;;;;;10441507;28;20393;-65
2023/01/11 11:17:35;;;;;;;2.10;0.90;;;10.80;99.90;;;;;;10435165;28;20022;-65
2023/01/11 11:22:36;;;;;;;3.75;1.15;;;10.80;99.90;;;;;;10444099;28;20438;-65
2023/01/11 11:28:00;;;;;;;4.10;1.00;;;10.90;99.90;;;;;;10430257;28;20025;-65
2023/01/11 11:33:06;;;;;;;5.05;1.25;;;10.80;99.90;;;;;;10438620;28;20107;-65
2023/01/11 11:38:20;;;;;;;7.13;1.30;;;10.80;99.90;;;;;;10436704;28;20496;-66
2023/01/11 11:43:26;;;;;;;2.22;0.70;;;10.80;99.90;;;;;;10438732;28;20214;-65
2023/01/11 11:48:30;;;;;;;8.05;1.17;;;10.90;99.90;;;;;;10440489;28;20074;-64
2023/01/11 11:53:56;;;;;;;8.50;1.33;;;10.80;99.90;;;;;;10436493;28;20539;-67
2023/01/11 11:59:03;;;;;;;4.90;0.95;;;10.80;99.90;;;;;;10433990;28;20112;-66
2023/01/11 12:04:19;;;;;;;5.50;1.10;;;10.80;99.90;;;;;;10439914;28;20496;-66
2023/01/11 12:09:29;;;;;;;3.92;1.00;;;10.90;99.90;;;;;;10433624;28;20021;-65
2023/01/11 12:14:33;;;;;;;4.70;1.40;;;10.90;99.90;;;;;;10435157;28;20029;-66
2023/01/11 12:19:44;;;;;;;9.60;1.42;;;10.90;99.90;;;;;;10435834;28;20024;-66
2023/01/11 12:25:01;;;;;;;4.07;1.23;;;10.90;99.90;;;;;;10442286;28;20436;-66
2023/01/11 12:30:13;;;;;;;7.93;1.00;;;10.90;99.90;;;;;;10427988;28;20164;-65
2023/01/11 12:35:27;;;;;;;5.82;1.17;;;10.90;99.90;;;;;;10430873;28;20048;-67
2023/01/11 12:40:51;;;;;;;2.60;0.73;;;10.80;99.90;;;;;;10417191;28;20479;-66
2023/01/11 12:46:15;;;;;;;4.30;1.20;;;10.80;99.90;;;;;;10429668;28;20114;-66
2023/01/11 12:51:41;;;;;;;7.57;1.13;;;11.20;99.90;;;;;;10437144;28;20021;-66
2023/01/11 12:57:06;;;;;;;2.75;0.80;;;10.80;99.90;;;;;;10444584;28;20021;-66
2023/01/11 13:02:06;;;;;;;9.30;1.27;;;10.70;99.90;;;;;;10432139;28;20037;-63
2023/01/11 13:07:22;;;;;;;5.15;1.38;;;10.70;99.90;;;;;;10430956;28;20252;-67
2023/01/11 13:12:37;;;;;;;8.50;1.42;;;10.70;99.90;;;;;;10431052;28;20493;-67
2023/01/11 13:17:51;;;;;;;8.32;1.33;;;10.70;99.90;;;;;;10432308;28;20380;-66
2023/01/11 13:23:14;;;;;;;7.22;1.70;;;10.60;99.90;;;;;;10436663;28;20261;-64
2023/01/11 13:28:36;;;;;;;5.97;1.25;;;10.70;99.90;;;;;;10419179;28;20381;-65
2023/01/11 13:33:42;;;;;;;5.57;1.30;;;10.70;99.90;;;;;;10430368;28;20016;-66
2023/01/11 13:38:53;;;;;;;7.18;1.60;;;10.90;99.90;;;;;;10427319;28;20104;-66
2023/01/11 13:44:13;;;;;;;3.80;1.15;;;10.70;99.90;;;;;;10427456;28;20029;-67
2023/01/11 13:49:24;;;;;;;7.00;1.17;;;10.70;99.90;;;;;;10419272;28;20020;-67
2023/01/11 13:54:44;;;;;;;6.13;1.38;;;10.70;99.90;;;;;;10431294;28;20021;-66
2023/01/11 13:59:50;;;;;;;7.32;1.15;;;10.70;99.90;;;;;;10440940;28;20071;-69
2023/01/11 14:04:59;;;;;;;9.05;1.50;;;10.70;99.90;;;;;;10430340;28;20396;-66
2023/01/11 14:10:15;;;;;;;;;;;11.10;99.90;;;;;;10434807;28;20025;-67
2023/01/11 14:15:22;;;;;;;4.55;1.08;;;10.70;99.90;;;;;;10425835;28;19905;-67
2023/01/11 14:20:56;;;;;;;3.20;1.02;;;10.70;99.90;;;;;;10432876;28;20473;-67
2023/01/11 14:26:27;;;;;;;3.90;1.05;;;10.70;99.90;;;;;;10423762;28;20311;-67
2023/01/11 14:32:07;;;;;;;5.38;1.15;;;10.70;99.90;;;;;;10441478;28;20068;-66
2023/01/11 14:37:49;;;;;;;4.97;1.10;;;10.70;99.90;;;;;;10433501;28;20409;-66
2023/01/11 14:42:56;;;;;;;7.00;2.03;;;10.70;99.90;;;;;;10418135;28;20179;-66
2023/01/11 14:48:15;;;;;;;8.52;1.80;;;10.70;99.90;;;;;;10431338;28;20091;-65
2023/01/11 14:53:22;;;;;;;12.85;1.30;;;10.70;99.90;;;;;;10440205;28;20457;-66
2023/01/11 14:58:29;;;;;;;7.28;0.95;;;10.70;99.90;;;;;;10433308;28;20100;-68
2023/01/11 15:03:39;;;;;;;8.40;1.75;;;10.70;99.90;;;;;;10431798;28;20563;-67
2023/01/11 15:08:43;;;;;;;5.65;1.45;;;10.70;99.90;;;;;;10436321;28;20112;-71
2023/01/11 15:13:48;;;;;;;6.57;1.73;;;10.60;99.90;;;;;;10437717;28;20099;-71
2023/01/11 15:18:49;;;;;;;7.72;1.40;;;10.70;99.90;;;;;;10437916;28;20021;-67
2023/01/11 15:23:53;;;;;;;7.00;2.30;;;10.60;99.90;;;;;;10439119;28;20493;-68
2023/01/11 15:28:58;;;;;;;10.50;1.60;;;11.10;99.90;;;;;;10435902;28;20020;-68
2023/01/11 15:34:17;;;;;;;10.90;1.70;;;10.60;99.90;;;;;;10439763;28;20690;-67
2023/01/11 15:39:27;;;;;;;7.78;1.60;;;10.70;99.90;;;;;;10429036;28;20081;-68
2023/01/11 15:44:57;;;;;;;6.85;1.63;;;10.70;99.90;;;;;;10426549;28;20098;-67
2023/01/11 15:50:26;;;;;;;10.15;1.95;;;10.60;99.90;;;;;;10405351;28;20037;-67
2023/01/11 15:56:04;;;;;;;11.77;1.83;;;10.60;99.90;;;;;;10427032;28;20033;-68
2023/01/11 16:01:16;;;;;;;7.57;1.85;;;10.60;99.90;;;;;;10420478;28;20049;-68
2023/01/11 16:06:19;;;;;;;5.60;1.33;;;10.50;99.90;;;;;;10419763;28;20245;-66
2023/01/11 16:11:35;;;;;;;5.65;1.38;;;10.60;99.90;;;;;;10417703;28;20116;-66
2023/01/11 16:16:43;;;;;;;6.82;1.48;;;10.50;99.90;;;;;;10412723;28;20148;-67
2023/01/11 16:21:47;;;;;;;7.07;2.00;;;10.50;99.90;;;;;;10415342;28;20033;-65
2023/01/11 16:26:57;;;;;;;6.55;1.30;;;10.50;99.90;;;;;;10423308;28;20159;-65
2023/01/11 16:31:59;;;;;;;9.27;1.77;;;10.40;99.90;;;;;;10418145;28;20024;-65
2023/01/11 16:37:00;;;;;;;6.72;2.28;;;10.40;99.90;;;;;;10417069;28;20311;-67
2023/01/11 16:42:04;;;;;;;5.20;1.10;;;10.50;99.90;;;;;;10434852;28;20312;-67
2023/01/11 16:47:15;;;;;;;5.25;1.92;;;10.40;99.90;;;;;;10417924;28;20465;-67
2023/01/11 16:52:30;;;;;;;9.13;1.25;;;10.40;99.90;;;;;;10431833;28;20036;-67
2023/01/11 16:57:36;;;;;;;6.28;1.27;;;10.40;99.90;;;;;;10429391;28;20397;-63
2023/01/11 17:02:42;;;;;;;7.22;1.70;;;10.70;99.90;;;;;;10434931;28;20483;-65
2023/01/11 17:07:42;;;;;;;10.75;1.48;;;10.30;99.90;;;;;;10427154;28;20484;-68
2023/01/11 17:12:46;;;;;;;8.38;1.67;;;10.30;99.90;;;;;;10430832;28;20316;-65
2023/01/11 17:17:47;;;;;;;8.32;1.35;;;10.30;99.90;;;;;;10435517;28;20052;-67
2023/01/11 17:22:52;;;;;;;13.23;1.75;;;10.30;99.90;;;;;;10426169;28;20424;-67
2023/01/11 17:28:02;;;;;;;7.00;1.98;;;10.20;99.90;;;;;;10427845;28;20382;-69
2023/01/11 17:33:03;;;;;;;8.57;1.10;;;10.20;99.90;;;;;;10435221;28;20032;-67
2023/01/11 17:38:05;;;;;;;9.85;1.35;;;10.20;99.90;;;;;;10434506;28;20387;-69
2023/01/11 17:48:52;;;;;;;7.45;1.60;;;10.20;99.90;;;;;;10426701;28;20025;-66
2023/01/11 17:53:53;;;;;;;5.57;1.38;;;10.20;99.90;;;;;;10423744;28;20020;-66
2023/01/11 17:59:10;;;;;;;8.80;1.33;;;10.30;99.90;;;;;;10421769;28;20469;-65
2023/01/11 18:04:17;;;;;;;11.18;2.20;;;10.30;99.90;;;;;;10432570;28;20045;-68
2023/01/11 18:09:29;;;;;;;6.47;1.50;;;10.30;99.90;;;;;;10413533;28;20061;-66
2023/01/11 18:14:37;;;;;;;7.97;1.38;;;10.30;99.90;;;;;;10430187;28;20087;-65
2023/01/11 18:19:43;;;;;;;10.10;1.70;;;10.30;99.90;;;;;;10423780;28;20067;-66
2023/01/11 18:24:52;;;;;;;7.80;1.25;;;10.30;99.90;;;;;;10434743;28;20038;-65
2023/01/11 18:29:54;;;;;;;7.40;1.70;;;10.30;99.90;;;;;;10426789;28;20035;-66
2023/01/11 18:34:57;;;;;;;10.63;1.80;;;10.20;99.90;;;;;;10437667;28;20090;-66
2023/01/11 18:39:58;;;;;;;7.22;1.60;;;10.20;99.90;;;;;;10426240;28;20090;-65
2023/01/11 18:44:58;;;;;;;9.32;1.52;;;10.20;99.90;;;;;;10432673;28;20050;-66
2023/01/11 18:49:59;;;;;;;9.45;1.02;;;10.60;99.90;;;;;;10437446;28;20362;-66
2023/01/11 18:55:00;;;;;;;5.18;1.10;;;11.40;99.90;;;;;;10447401;28;20021;-66
2023/01/11 19:00:00;;;;;;;9.30;1.52;;;11.10;99.90;;;;;;10441460;28;20400;-66
2023/01/11 19:05:01;;;;;;;5.95;1.33;;;10.20;99.90;;;;;;10417118;28;20044;-66
2023/01/11 19:10:02;;;;;;;3.45;1.10;;;10.20;99.90;;;;;;10425188;28;20382;-66
2023/01/11 19:15:03;;;;;;;6.55;1.20;;;10.20;99.90;;;;;;10428663;28;20513;-66
2023/01/11 19:20:07;;;;;;;10.13;1.52;;;10.20;99.90;;;;;;10421845;28;20116;-65
2023/01/11 19:25:10;;;;;;;6.13;1.48;;;10.20;99.90;;;;;;10422244;28;20451;-66
2023/01/11 19:30:11;;;;;;;9.43;1.10;;;10.20;99.90;;;;;;10414289;28;20029;-67
2023/01/11 19:35:12;;;;;;;6.47;1.25;;;10.20;99.90;;;;;;10443519;28;20060;-66
2023/01/11 19:40:12;;;;;;;4.05;0.95;;;10.20;99.90;;;;;;10440319;28;20021;-65
2023/01/11 19:45:13;;;;;;;8.35;1.23;;;10.20;99.90;;;;;;10440072;28;20033;-66
2023/01/11 19:50:15;;;;;;;7.18;1.30;;;10.10;99.90;;;;;;10433596;28;20048;-65
2023/01/11 19:55:16;;;;;;;6.70;1.60;;;10.10;99.90;;;;;;10443700;28;20279;-66
2023/01/11 20:00:19;;;;;;;8.00;1.30;;;10.10;99.90;;;;;;10419760;28;20828;-66
2023/01/11 20:05:19;;;;;;;7.80;1.30;;;10.10;99.90;;;;;;10423817;28;20428;-66
2023/01/11 20:10:20;;;;;;;3.50;1.20;;;10.10;99.90;;;;;;10431468;28;20030;-66
2023/01/11 20:15:21;;;;;;;3.92;1.30;;;10.10;99.90;;;;;;10413301;28;20268;-66
2023/01/11 20:20:25;;;;;;;3.67;1.10;;;10.10;99.90;;;;;;10420191;28;20098;-66
2023/01/11 20:25:26;;;;;;;6.55;1.80;;;10.90;99.90;;;;;;10419415;28;20124;-65
2023/01/11 20:30:26;;;;;;;5.50;1.33;;;10.10;99.90;;;;;;10420223;28;20148;-66
2023/01/11 20:35:27;;;;;;;5.07;1.30;;;10.10;99.90;;;;;;10418319;28;20028;-65
2023/01/11 20:40:28;;;;;;;4.75;1.23;;;10.10;99.90;;;;;;10416841;28;20078;-65
2023/01/11 20:45:30;;;;;;;8.35;1.40;;;10.10;99.90;;;;;;10420587;28;20040;-66
2023/01/11 20:50:32;;;;;;;4.55;1.50;;;10.10;99.90;;;;;;10418840;28;20017;-66
2023/01/11 20:55:35;;;;;;;6.30;1.20;;;10.00;99.90;;;;;;10420307;28;20493;-66
2023/01/11 21:00:36;;;;;;;7.50;1.35;;;10.10;99.90;;;;;;10423710;28;20370;-66
2023/01/11 21:05:36;;;;;;;5.63;1.25;;;10.90;99.90;;;;;;10418337;28;20037;-66
2023/01/11 21:10:37;;;;;;;3.47;0.90;;;11.20;99.90;;;;;;10421362;28;20129;-66
2023/01/11 21:15:38;;;;;;;4.57;1.00;;;10.10;99.90;;;;;;10430141;28;20613;-66
2023/01/11 21:20:38;;;;;;;3.03;0.73;;;10.10;99.90;;;;;;10413452;28;20547;-66
2023/01/11 21:25:39;;;;;;;4.93;1.45;;;10.00;99.90;;;;;;10417170;28;20223;-66
2023/01/11 21:30:40;;;;;;;5.70;1.35;;;10.00;99.90;;;;;;10416459;28;20035;-66
2023/01/11 21:35:41;;;;;;;4.70;0.80;;;10.10;99.90;;;;;;10420193;28;20037;-66
2023/01/11 21:40:41;;;;;;;4.82;1.25;;;10.00;99.90;;;;;;10422767;28;20028;-66
2023/01/11 21:45:42;;;;;;;3.30;1.25;;;10.00;99.90;;;;;;10416682;28;20030;-66
2023/01/11 21:50:44;;;;;;;4.60;1.52;;;10.00;99.90;;;;;;10412751;28;20024;-66
2023/01/11 21:55:45;;;;;;;6.75;1.40;;;10.20;99.90;;;;;;10411817;28;20294;-66
2023/01/11 22:00:45;;;;;;;3.92;1.10;;;9.30;99.90;;;;;;10409471;28;20061;-66
2023/01/11 22:05:46;;;;;;;2.88;0.95;;;10.10;99.90;;;;;;10416470;28;20025;-66
2023/01/11 22:10:57;;;;;;;4.90;1.10;;;10.00;99.90;;;;;;10414382;28;20141;-66
2023/01/11 22:16:00;;;;;;;3.15;0.90;;;10.00;99.90;;;;;;10424528;28;20083;-67
2023/01/11 22:21:05;;;;;;;7.95;1.20;;;10.00;99.90;;;;;;10428615;28;20032;-66
2023/01/11 22:26:12;;;;;;;4.40;1.10;;;10.00;99.90;;;;;;10425755;28;20029;-67
2023/01/11 22:31:14;;;;;;;1.73;0.90;;;10.00;99.90;;;;;;10429961;28;20092;-67
2023/01/11 22:36:15;;;;;;;2.80;0.90;;;10.00;99.90;;;;;;10434638;28;20445;-67
2023/01/11 22:41:16;;;;;;;3.42;1.10;;;10.00;99.90;;;;;;10442940;28;20021;-66
2023/01/11 22:46:19;;;;;;;5.25;1.20;;;10.00;99.90;;;;;;10438895;28;20444;-66
2023/01/11 22:51:23;;;;;;;4.25;1.45;;;10.00;99.90;;;;;;10437656;28;20462;-66
2023/01/11 22:56:25;;;;;;;3.00;0.95;;;10.00;99.90;;;;;;10436046;28;20022;-66
2023/01/11 23:01:33;;;;;;;2.67;1.00;;;10.00;99.90;;;;;;10435350;28;20034;-68
2023/01/11 23:06:37;;;;;;;5.65;1.35;;;10.00;99.90;;;;;;10423719;28;20651;-66
2023/01/11 23:17:03;;;;;;;5.75;1.10;;;10.00;99.90;;;;;;10442133;28;20009;-66
2023/01/11 23:22:05;;;;;;;3.22;1.02;;;10.00;99.90;;;;;;10428723;28;20396;-67
2023/01/11 23:27:06;;;;;;;5.10;1.08;;;10.00;99.90;;;;;;10436067;28;20466;-66
2023/01/11 23:32:07;;;;;;;5.07;1.48;;;10.00;99.90;;;;;;10439368;28;20025;-66
2023/01/11 23:37:07;;;;;;;7.28;1.08;;;10.00;99.90;;;;;;10439081;28;20013;-67
2023/01/11 23:42:27;;;;;;;2.40;1.00;;;10.00;99.90;;;;;;10433557;28;20029;-66
2023/01/11 23:47:30;;;;;;;6.65;1.40;;;10.20;99.90;;;;;;10439065;28;20442;-66
2023/01/11 23:52:31;;;;;;;2.00;0.88;;;10.00;99.90;;;;;;10434106;28;20049;-67
2023/01/11 23:57:32;;;;;;;5.20;1.10;;;10.90;99.90;;;;;;10442306;28;20287;-66
